sensor_id;sensor_type;location;lat;lon;timestamp;temperature;humidity
5828;DHT22;42583;50.240;8.444;2024-03-06T00:12:50;4.90;99.90
5828;DHT22;42583;50.240;8.444;2024-03-06T00:27:51;4.70;99.90
5828;DHT22;42583;50.240;8.444;2024-03-06T00:42:52;4.50;99.90
5828;DHT22;42583;50.240;8.444;2024-03-06T00:57:52;4.60;99.90
5828;DHT22;42583;50.240;8.444;2024-03-06T01:12:53;4.40;99.90
5828;DHT22;42583;50.240;8.444;2024-03-06T01:27:53;4.30;99.90
5828;DHT22;42583;50.240;8.444;2024-03-06T01:42:54;4.30;99.90
5828;DHT22;42583;50.240;8.444;2024-03-06T01:57:55;4.30;99.90
5828;DHT22;42583;50.240;8.444;2024-03-06T02:12:56;4.40;99.90
5828;DHT22;42583;50.240;8.444;2024-03-06T02:27:58;4.40;99.90
5828;DHT22;42583;50.240;8.444;2024-03-06T02:42:59;4.20;99.90
5828;DHT22;42583;50.240;8.444;2024-03-06T02:58:03;4.00;99.90
5828;DHT22;42583;50.240;8.444;2024-03-06T03:13:04;4.10;99.90
5828;DHT22;42583;50.240;8.444;2024-03-06T03:28:05;4.20;99.90
5828;DHT22;42583;50.240;8.444;2024-03-06T03:43:06;4.30;99.90
5828;DHT22;42583;50.240;8.444;2024-03-06T03:58:07;4.30;99.90
5828;DHT22;42583;50.240;8.444;2024-03-06T04:13:07;4.30;99.90
5828;DHT22;42583;50.240;8.444;2024-03-06T04:28:08;4.20;99.90
5828;DHT22;42583;50.240;8.444;2024-03-06T04:43:08;4.30;99.90
5828;DHT22;42583;50.240;8.444;2024-03-06T04:58:09;4.20;99.90
5828;DHT22;42583;50.240;8.444;2024-03-06T05:13:10;4.20;99.90
5828;DHT22;42583;50.240;8.444;2024-03-06T05:28:11;4.30;99.90
5828;DHT22;42583;50.240;8.444;2024-03-06T05:43:11;4.20;99.90
5828;DHT22;42583;50.240;8.444;2024-03-06T05:58:12;4.20;99.90
5828;DHT22;42583;50.240;8.444;2024-03-06T06:13:13;4.20;99.90
5828;DHT22;42583;50.240;8.444;2024-03-06T06:28:14;4.10;99.90
5828;DHT22;42583;50.240;8.444;2024-03-06T06:43:15;4.20;99.90
5828;DHT22;42583;50.240;8.444;2024-03-06T06:58:16;4.20;99.90
5828;DHT22;42583;50.240;8.444;2024-03-06T07:13:16;4.30;99.90
5828;DHT22;42583;50.240;8.444;2024-03-06T07:28:18;4.50;99.90
5828;DHT22;42583;50.240;8.444;2024-03-06T07:43:19;5.00;99.90
5828;DHT22;42583;50.240;8.444;2024-03-06T07:58:19;5.30;99.90
5828;DHT22;42583;50.240;8.444;2024-03-06T08:13:21;5.80;99.90
5828;DHT22;42583;50.240;8.444;2024-03-06T08:28:22;6.60;99.90
5828;DHT22;42583;50.240;8.444;2024-03-06T08:43:22;7.30;99.90
5828;DHT22;42583;50.240;8.444;2024-03-06T08:58:23;7.40;99.90
5828;DHT22;42583;50.240;8.444;2024-03-06T09:13:23;7.50;99.90
5828;DHT22;42583;50.240;8.444;2024-03-06T09:28:24;7.70;99.90
5828;DHT22;42583;50.240;8.444;2024-03-06T09:43:25;8.40;99.90
5828;DHT22;42583;50.240;8.444;2024-03-06T09:58:25;8.90;99.90
5828;DHT22;42583;50.240;8.444;2024-03-06T10:13:26;9.00;99.90
5828;DHT22;42583;50.240;8.444;2024-03-06T10:28:27;9.20;99.90
5828;DHT22;42583;50.240;8.444;2024-03-06T10:43:29;9.80;99.90
5828;DHT22;42583;50.240;8.444;2024-03-06T10:58:30;10.50;99.90
5828;DHT22;42583;50.240;8.444;2024-03-06T11:13:32;11.50;99.90
5828;DHT22;42583;50.240;8.444;2024-03-06T11:28:36;13.30;99.90
5828;DHT22;42583;50.240;8.444;2024-03-06T11:43:44;14.90;99.90
5828;DHT22;42583;50.240;8.444;2024-03-06T11:58:45;15.10;99.90
5828;DHT22;42583;50.240;8.444;2024-03-06T12:13:46;15.50;99.60
5828;DHT22;42583;50.240;8.444;2024-03-06T12:28:48;15.90;94.10
5828;DHT22;42583;50.240;8.444;2024-03-06T12:43:48;13.90;91.30
5828;DHT22;42583;50.240;8.444;2024-03-06T12:58:49;12.90;93.00
5828;DHT22;42583;50.240;8.444;2024-03-06T13:13:50;14.10;95.10
5828;DHT22;42583;50.240;8.444;2024-03-06T13:28:50;16.70;88.80
5828;DHT22;42583;50.240;8.444;2024-03-06T13:43:51;14.50;84.10
5828;DHT22;42583;50.240;8.444;2024-03-06T13:58:51;12.60;82.60
5828;DHT22;42583;50.240;8.444;2024-03-06T14:13:52;12.20;85.00
5828;DHT22;42583;50.240;8.444;2024-03-06T14:28:53;11.10;86.70
5828;DHT22;42583;50.240;8.444;2024-03-06T14:43:54;10.60;87.70
5828;DHT22;42583;50.240;8.444;2024-03-06T14:58:54;10.10;89.40
5828;DHT22;42583;50.240;8.444;2024-03-06T15:13:55;9.80;91.30
5828;DHT22;42583;50.240;8.444;2024-03-06T15:28:56;9.60;91.80
5828;DHT22;42583;50.240;8.444;2024-03-06T15:43:56;9.30;92.70
5828;DHT22;42583;50.240;8.444;2024-03-06T15:58:57;9.10;93.40
5828;DHT22;42583;50.240;8.444;2024-03-06T16:13:57;8.90;94.80
5828;DHT22;42583;50.240;8.444;2024-03-06T16:29:00;8.50;96.90
5828;DHT22;42583;50.240;8.444;2024-03-06T16:44:02;8.10;99.40
5828;DHT22;42583;50.240;8.444;2024-03-06T16:59:04;7.80;99.90
5828;DHT22;42583;50.240;8.444;2024-03-06T17:14:07;7.50;99.90
5828;DHT22;42583;50.240;8.444;2024-03-06T17:29:08;7.30;99.90
5828;DHT22;42583;50.240;8.444;2024-03-06T17:44:09;7.00;99.90
5828;DHT22;42583;50.240;8.444;2024-03-06T17:59:10;6.80;99.90
5828;DHT22;42583;50.240;8.444;2024-03-06T18:14:11;6.50;99.90
5828;DHT22;42583;50.240;8.444;2024-03-06T18:29:12;6.20;99.90
5828;DHT22;42583;50.240;8.444;2024-03-06T18:44:18;6.00;99.90
5828;DHT22;42583;50.240;8.444;2024-03-06T18:59:26;5.80;99.90
5828;DHT22;42583;50.240;8.444;2024-03-06T19:14:37;5.60;99.90
5828;DHT22;42583;50.240;8.444;2024-03-06T19:29:38;5.50;99.90
5828;DHT22;42583;50.240;8.444;2024-03-06T19:44:47;5.30;99.90
5828;DHT22;42583;50.240;8.444;2024-03-06T20:00:00;5.30;99.90
5828;DHT22;42583;50.240;8.444;2024-03-06T20:15:20;5.10;99.90
5828;DHT22;42583;50.240;8.444;2024-03-06T20:30:21;5.00;99.90
5828;DHT22;42583;50.240;8.444;2024-03-06T20:45:22;4.90;99.90
5828;DHT22;42583;50.240;8.444;2024-03-06T21:00:24;4.80;99.90
5828;DHT22;42583;50.240;8.444;2024-03-06T21:15:25;4.70;99.90
5828;DHT22;42583;50.240;8.444;2024-03-06T21:30:27;4.70;99.90
5828;DHT22;42583;50.240;8.444;2024-03-06T21:45:27;4.70;99.90
5828;DHT22;42583;50.240;8.444;2024-03-06T22:00:30;4.60;99.90
5828;DHT22;42583;50.240;8.444;2024-03-06T22:15:31;4.60;99.90
5828;DHT22;42583;50.240;8.444;2024-03-06T22:30:34;4.50;99.90
5828;DHT22;42583;50.240;8.444;2024-03-06T22:45:35;4.50;99.90
5828;DHT22;42583;50.240;8.444;2024-03-06T23:00:35;4.40;99.90
5828;DHT22;42583;50.240;8.444;2024-03-06T23:15:39;4.30;99.90
5828;DHT22;42583;50.240;8.444;2024-03-06T23:30:41;4.30;99.90
5828;DHT22;42583;50.240;8.444;2024-03-06T23:45:41;4.30;99.90
